Hanging Rock, Virginia
Current Conditions -  °F | °C
As of 4:54 PM on Friday 24 Oct 2014 (Local Time) from KROA Reporting Station
Broken Clouds Broken Clouds  
Wind Chill: 70°   Ceiling: 25000
Heat Index: 70°   Visibility: 10mi
Dew Point: 36°   Wind: 7mph
Humidity: 29%   Direction: 340°NNW
Pressure: 29.98"   Gusts: NA
Location:  37.2956°N, 80.1166°W
Report Text: KROA 242054Z 34006KT 10SM BKN250 21/02 A2998 RMK AO2 SLP148 T02110022 56013
Loading
Personal Weather Stations






























Interactive Weather Map
Tropical Storm Tracking
New forecast layout! Learn more

10-Day Weather Forecast

Advertisements
Track Severe Weather on mobile